sensor_id;sensor_type;location;lat;lon;timestamp;temperature;humidity
43087;DHT22;28708;52.224;6.924;2023-02-17T00:01:01;9.70;99.90
43087;DHT22;28708;52.224;6.924;2023-02-17T00:03:33;9.70;99.90
43087;DHT22;28708;52.224;6.924;2023-02-17T00:05:58;9.70;99.90
43087;DHT22;28708;52.224;6.924;2023-02-17T00:08:24;9.70;99.90
43087;DHT22;28708;52.224;6.924;2023-02-17T00:10:57;9.60;99.90
43087;DHT22;28708;52.224;6.924;2023-02-17T00:13:23;9.60;99.90
43087;DHT22;28708;52.224;6.924;2023-02-17T00:15:49;9.70;99.90
43087;DHT22;28708;52.224;6.924;2023-02-17T00:18:14;9.70;99.90
43087;DHT22;28708;52.224;6.924;2023-02-17T00:20:40;9.70;99.90
43087;DHT22;28708;52.224;6.924;2023-02-17T00:23:05;9.70;99.90
43087;DHT22;28708;52.224;6.924;2023-02-17T00:25:31;9.60;99.90
43087;DHT22;28708;52.224;6.924;2023-02-17T00:27:57;9.60;99.90
43087;DHT22;28708;52.224;6.924;2023-02-17T00:30:22;9.70;99.90
43087;DHT22;28708;52.224;6.924;2023-02-17T00:32:48;9.60;99.90
43087;DHT22;28708;52.224;6.924;2023-02-17T00:35:14;9.60;99.90
43087;DHT22;28708;52.224;6.924;2023-02-17T00:37:40;9.60;99.90
43087;DHT22;28708;52.224;6.924;2023-02-17T00:40:10;9.60;99.90
43087;DHT22;28708;52.224;6.924;2023-02-17T00:42:36;9.60;99.90
43087;DHT22;28708;52.224;6.924;2023-02-17T00:45:02;9.60;99.90
43087;DHT22;28708;52.224;6.924;2023-02-17T00:47:28;9.70;99.90
43087;DHT22;28708;52.224;6.924;2023-02-17T00:49:53;9.60;99.90
43087;DHT22;28708;52.224;6.924;2023-02-17T00:52:19;9.60;99.90
43087;DHT22;28708;52.224;6.924;2023-02-17T00:54:45;9.60;99.90
43087;DHT22;28708;52.224;6.924;2023-02-17T00:57:11;9.60;99.90
43087;DHT22;28708;52.224;6.924;2023-02-17T00:59:36;9.60;99.90
43087;DHT22;28708;52.224;6.924;2023-02-17T01:02:02;9.70;99.90
43087;DHT22;28708;52.224;6.924;2023-02-17T01:04:28;9.60;99.90
43087;DHT22;28708;52.224;6.924;2023-02-17T01:06:53;9.60;99.90
43087;DHT22;28708;52.224;6.924;2023-02-17T01:09:21;9.70;99.90
43087;DHT22;28708;52.224;6.924;2023-02-17T01:11:47;9.70;99.90
43087;DHT22;28708;52.224;6.924;2023-02-17T01:14:13;9.70;99.90
43087;DHT22;28708;52.224;6.924;2023-02-17T01:16:43;9.70;99.90
43087;DHT22;28708;52.224;6.924;2023-02-17T01:19:11;9.70;99.90
43087;DHT22;28708;52.224;6.924;2023-02-17T01:21:36;9.70;99.90
43087;DHT22;28708;52.224;6.924;2023-02-17T01:24:04;9.70;99.90
43087;DHT22;28708;52.224;6.924;2023-02-17T01:26:31;9.70;99.90
43087;DHT22;28708;52.224;6.924;2023-02-17T01:29:00;9.70;99.90
43087;DHT22;28708;52.224;6.924;2023-02-17T01:31:27;9.80;99.90
43087;DHT22;28708;52.224;6.924;2023-02-17T01:33:55;9.70;99.90
43087;DHT22;28708;52.224;6.924;2023-02-17T01:36:21;9.80;99.90
43087;DHT22;28708;52.224;6.924;2023-02-17T01:38:48;9.80;99.90
43087;DHT22;28708;52.224;6.924;2023-02-17T01:41:18;9.80;99.90
43087;DHT22;28708;52.224;6.924;2023-02-17T01:46:32;9.80;99.90
43087;DHT22;28708;52.224;6.924;2023-02-17T01:48:58;9.90;99.90
43087;DHT22;28708;52.224;6.924;2023-02-17T01:51:27;9.90;99.90
43087;DHT22;28708;52.224;6.924;2023-02-17T01:54:02;9.90;99.90
43087;DHT22;28708;52.224;6.924;2023-02-17T01:56:30;9.90;99.90
43087;DHT22;28708;52.224;6.924;2023-02-17T01:59:01;9.90;99.90
43087;DHT22;28708;52.224;6.924;2023-02-17T02:01:29;9.90;99.90
43087;DHT22;28708;52.224;6.924;2023-02-17T02:03:55;9.80;99.90
43087;DHT22;28708;52.224;6.924;2023-02-17T02:06:24;9.80;99.90
43087;DHT22;28708;52.224;6.924;2023-02-17T02:08:58;9.90;99.90
43087;DHT22;28708;52.224;6.924;2023-02-17T02:11:27;9.90;99.90
43087;DHT22;28708;52.224;6.924;2023-02-17T02:13:54;9.90;99.90
43087;DHT22;28708;52.224;6.924;2023-02-17T02:16:28;9.90;99.90
43087;DHT22;28708;52.224;6.924;2023-02-17T02:19:14;10.00;99.90
43087;DHT22;28708;52.224;6.924;2023-02-17T02:22:19;9.90;99.90
43087;DHT22;28708;52.224;6.924;2023-02-17T02:25:35;10.00;99.90
43087;DHT22;28708;52.224;6.924;2023-02-17T02:33:42;10.00;99.90
43087;DHT22;28708;52.224;6.924;2023-02-17T02:36:11;10.00;99.90
43087;DHT22;28708;52.224;6.924;2023-02-17T02:38:42;10.00;99.90
43087;DHT22;28708;52.224;6.924;2023-02-17T02:41:16;10.00;99.90
43087;DHT22;28708;52.224;6.924;2023-02-17T02:43:43;10.00;99.90
43087;DHT22;28708;52.224;6.924;2023-02-17T02:46:09;10.10;99.90
43087;DHT22;28708;52.224;6.924;2023-02-17T02:48:36;10.10;99.90
43087;DHT22;28708;52.224;6.924;2023-02-17T03:02:55;10.10;99.90
43087;DHT22;28708;52.224;6.924;2023-02-17T03:05:37;10.10;99.90
43087;DHT22;28708;52.224;6.924;2023-02-17T03:08:16;10.10;99.90
43087;DHT22;28708;52.224;6.924;2023-02-17T03:10:50;10.10;99.90
43087;DHT22;28708;52.224;6.924;2023-02-17T03:13:17;10.10;99.90
43087;DHT22;28708;52.224;6.924;2023-02-17T03:15:43;10.10;99.90
43087;DHT22;28708;52.224;6.924;2023-02-17T03:18:10;10.20;99.90
43087;DHT22;28708;52.224;6.924;2023-02-17T03:20:39;10.20;99.90
43087;DHT22;28708;52.224;6.924;2023-02-17T03:23:08;10.20;99.90
43087;DHT22;28708;52.224;6.924;2023-02-17T03:25:34;10.20;99.90
43087;DHT22;28708;52.224;6.924;2023-02-17T03:27:59;10.20;99.90
43087;DHT22;28708;52.224;6.924;2023-02-17T03:30:25;10.20;99.90
43087;DHT22;28708;52.224;6.924;2023-02-17T03:32:52;10.20;99.90
43087;DHT22;28708;52.224;6.924;2023-02-17T03:35:17;10.20;99.90
43087;DHT22;28708;52.224;6.924;2023-02-17T03:37:43;10.20;99.90
43087;DHT22;28708;52.224;6.924;2023-02-17T03:40:09;10.20;99.90
43087;DHT22;28708;52.224;6.924;2023-02-17T03:42:35;10.20;99.90
43087;DHT22;28708;52.224;6.924;2023-02-17T03:45:00;10.30;99.90
43087;DHT22;28708;52.224;6.924;2023-02-17T03:47:26;10.20;99.90
43087;DHT22;28708;52.224;6.924;2023-02-17T03:49:52;10.20;99.90
43087;DHT22;28708;52.224;6.924;2023-02-17T03:52:18;10.20;99.90
43087;DHT22;28708;52.224;6.924;2023-02-17T03:54:43;10.20;99.90
43087;DHT22;28708;52.224;6.924;2023-02-17T03:57:09;10.20;99.90
43087;DHT22;28708;52.224;6.924;2023-02-17T03:59:35;10.20;99.90
43087;DHT22;28708;52.224;6.924;2023-02-17T04:02:01;10.20;99.90
43087;DHT22;28708;52.224;6.924;2023-02-17T04:04:27;10.20;99.90
43087;DHT22;28708;52.224;6.924;2023-02-17T04:06:52;10.20;99.90
43087;DHT22;28708;52.224;6.924;2023-02-17T04:09:18;10.20;99.90
43087;DHT22;28708;52.224;6.924;2023-02-17T04:11:43;10.20;99.90
43087;DHT22;28708;52.224;6.924;2023-02-17T04:14:09;10.20;99.90
43087;DHT22;28708;52.224;6.924;2023-02-17T04:16:35;10.20;99.90
43087;DHT22;28708;52.224;6.924;2023-02-17T04:19:06;10.20;99.90
43087;DHT22;28708;52.224;6.924;2023-02-17T04:21:32;10.20;99.90
43087;DHT22;28708;52.224;6.924;2023-02-17T04:24:00;10.20;99.90
43087;DHT22;28708;52.224;6.924;2023-02-17T04:26:26;10.20;99.90
43087;DHT22;28708;52.224;6.924;2023-02-17T04:28:51;10.30;99.90
43087;DHT22;28708;52.224;6.924;2023-02-17T04:31:17;10.30;99.90
43087;DHT22;28708;52.224;6.924;2023-02-17T04:33:43;10.20;99.90
43087;DHT22;28708;52.224;6.924;2023-02-17T04:36:09;10.20;99.90
43087;DHT22;28708;52.224;6.924;2023-02-17T04:38:36;10.20;99.90
43087;DHT22;28708;52.224;6.924;2023-02-17T04:41:02;10.20;99.90
43087;DHT22;28708;52.224;6.924;2023-02-17T04:43:28;10.20;99.90
43087;DHT22;28708;52.224;6.924;2023-02-17T04:45:54;10.20;99.90
43087;DHT22;28708;52.224;6.924;2023-02-17T04:48:20;10.20;99.90
43087;DHT22;28708;52.224;6.924;2023-02-17T04:50:46;10.20;99.90
43087;DHT22;28708;52.224;6.924;2023-02-17T04:53:12;10.10;99.90
43087;DHT22;28708;52.224;6.924;2023-02-17T04:55:39;10.20;99.90
43087;DHT22;28708;52.224;6.924;2023-02-17T04:58:04;10.20;99.90
43087;DHT22;28708;52.224;6.924;2023-02-17T05:00:30;10.20;99.90
43087;DHT22;28708;52.224;6.924;2023-02-17T05:02:56;10.20;99.90
43087;DHT22;28708;52.224;6.924;2023-02-17T05:05:22;10.20;99.90
43087;DHT22;28708;52.224;6.924;2023-02-17T05:07:47;10.20;99.90
43087;DHT22;28708;52.224;6.924;2023-02-17T05:10:14;10.20;99.90
43087;DHT22;28708;52.224;6.924;2023-02-17T05:12:40;10.10;99.90
43087;DHT22;28708;52.224;6.924;2023-02-17T05:15:06;10.20;99.90
43087;DHT22;28708;52.224;6.924;2023-02-17T05:17:32;10.10;99.90
43087;DHT22;28708;52.224;6.924;2023-02-17T05:19:58;10.20;99.90
43087;DHT22;28708;52.224;6.924;2023-02-17T05:22:25;10.20;99.90
43087;DHT22;28708;52.224;6.924;2023-02-17T05:24:51;10.20;99.90
43087;DHT22;28708;52.224;6.924;2023-02-17T05:27:17;10.10;99.90
43087;DHT22;28708;52.224;6.924;2023-02-17T05:29:42;10.10;99.90
43087;DHT22;28708;52.224;6.924;2023-02-17T05:32:08;10.10;99.90
43087;DHT22;28708;52.224;6.924;2023-02-17T05:34:34;10.20;99.90
43087;DHT22;28708;52.224;6.924;2023-02-17T05:37:00;10.20;99.90
43087;DHT22;28708;52.224;6.924;2023-02-17T05:39:26;10.20;99.90
43087;DHT22;28708;52.224;6.924;2023-02-17T05:41:51;10.10;99.90
43087;DHT22;28708;52.224;6.924;2023-02-17T05:44:17;10.10;99.90
43087;DHT22;28708;52.224;6.924;2023-02-17T05:46:43;10.10;99.90
43087;DHT22;28708;52.224;6.924;2023-02-17T05:49:09;10.10;99.90
43087;DHT22;28708;52.224;6.924;2023-02-17T05:51:35;10.10;99.90
43087;DHT22;28708;52.224;6.924;2023-02-17T05:54:01;10.10;99.90
43087;DHT22;28708;52.224;6.924;2023-02-17T05:56:27;10.10;99.90
43087;DHT22;28708;52.224;6.924;2023-02-17T05:58:52;10.10;99.90
43087;DHT22;28708;52.224;6.924;2023-02-17T06:01:18;10.10;99.90
43087;DHT22;28708;52.224;6.924;2023-02-17T06:03:44;10.00;99.90
43087;DHT22;28708;52.224;6.924;2023-02-17T06:06:09;10.00;99.90
43087;DHT22;28708;52.224;6.924;2023-02-17T06:08:35;9.90;99.90
43087;DHT22;28708;52.224;6.924;2023-02-17T06:11:02;9.80;99.90
43087;DHT22;28708;52.224;6.924;2023-02-17T06:13:27;9.70;99.90
43087;DHT22;28708;52.224;6.924;2023-02-17T06:15:53;9.80;99.90
43087;DHT22;28708;52.224;6.924;2023-02-17T06:18:19;9.70;99.90
43087;DHT22;28708;52.224;6.924;2023-02-17T06:20:44;9.70;99.90
43087;DHT22;28708;52.224;6.924;2023-02-17T06:23:10;9.70;99.90
43087;DHT22;28708;52.224;6.924;2023-02-17T06:25:36;9.60;99.90
43087;DHT22;28708;52.224;6.924;2023-02-17T06:28:02;9.60;99.90
43087;DHT22;28708;52.224;6.924;2023-02-17T06:30:28;9.60;99.90
43087;DHT22;28708;52.224;6.924;2023-02-17T06:32:54;9.60;99.90
43087;DHT22;28708;52.224;6.924;2023-02-17T06:35:20;9.60;99.90
43087;DHT22;28708;52.224;6.924;2023-02-17T06:37:45;9.60;99.90
43087;DHT22;28708;52.224;6.924;2023-02-17T06:40:11;9.60;99.90
43087;DHT22;28708;52.224;6.924;2023-02-17T06:42:37;9.60;99.90
43087;DHT22;28708;52.224;6.924;2023-02-17T06:45:03;9.60;99.90
43087;DHT22;28708;52.224;6.924;2023-02-17T06:47:31;9.70;99.90
43087;DHT22;28708;52.224;6.924;2023-02-17T06:49:57;9.70;99.90
43087;DHT22;28708;52.224;6.924;2023-02-17T06:52:22;9.70;99.90
43087;DHT22;28708;52.224;6.924;2023-02-17T06:54:48;9.80;99.90
43087;DHT22;28708;52.224;6.924;2023-02-17T06:57:15;9.80;99.90
43087;DHT22;28708;52.224;6.924;2023-02-17T06:59:40;9.80;99.90
43087;DHT22;28708;52.224;6.924;2023-02-17T07:02:09;9.80;99.90
43087;DHT22;28708;52.224;6.924;2023-02-17T07:04:37;9.90;99.90
43087;DHT22;28708;52.224;6.924;2023-02-17T07:07:03;9.90;99.90
43087;DHT22;28708;52.224;6.924;2023-02-17T07:09:29;9.90;99.90
43087;DHT22;28708;52.224;6.924;2023-02-17T07:11:54;9.90;99.90
43087;DHT22;28708;52.224;6.924;2023-02-17T07:14:22;9.90;99.90
43087;DHT22;28708;52.224;6.924;2023-02-17T07:16:48;10.00;99.90
43087;DHT22;28708;52.224;6.924;2023-02-17T07:19:14;10.00;99.90
43087;DHT22;28708;52.224;6.924;2023-02-17T07:21:40;10.00;99.90
43087;DHT22;28708;52.224;6.924;2023-02-17T07:24:07;10.00;99.90
43087;DHT22;28708;52.224;6.924;2023-02-17T07:26:36;10.10;99.90
43087;DHT22;28708;52.224;6.924;2023-02-17T07:29:03;10.00;99.90
43087;DHT22;28708;52.224;6.924;2023-02-17T07:31:29;10.00;99.90
43087;DHT22;28708;52.224;6.924;2023-02-17T07:33:55;10.00;99.90
43087;DHT22;28708;52.224;6.924;2023-02-17T07:36:20;10.00;99.90
43087;DHT22;28708;52.224;6.924;2023-02-17T07:38:47;10.10;99.90
43087;DHT22;28708;52.224;6.924;2023-02-17T07:41:16;10.10;99.90
43087;DHT22;28708;52.224;6.924;2023-02-17T07:43:42;10.10;99.90
43087;DHT22;28708;52.224;6.924;2023-02-17T07:46:09;10.10;99.90
43087;DHT22;28708;52.224;6.924;2023-02-17T07:48:35;10.10;99.90
43087;DHT22;28708;52.224;6.924;2023-02-17T07:51:13;10.10;99.90
43087;DHT22;28708;52.224;6.924;2023-02-17T07:53:39;10.10;99.90
43087;DHT22;28708;52.224;6.924;2023-02-17T07:56:08;10.20;99.90
43087;DHT22;28708;52.224;6.924;2023-02-17T07:58:35;10.20;99.90
43087;DHT22;28708;52.224;6.924;2023-02-17T08:01:09;10.20;99.90
43087;DHT22;28708;52.224;6.924;2023-02-17T08:03:36;10.20;99.90
43087;DHT22;28708;52.224;6.924;2023-02-17T08:06:02;10.20;99.90
43087;DHT22;28708;52.224;6.924;2023-02-17T08:08:27;10.20;99.90
43087;DHT22;28708;52.224;6.924;2023-02-17T08:11:13;10.30;99.90
43087;DHT22;28708;52.224;6.924;2023-02-17T08:13:58;10.30;99.90
43087;DHT22;28708;52.224;6.924;2023-02-17T08:16:23;10.30;99.90
43087;DHT22;28708;52.224;6.924;2023-02-17T08:18:52;10.30;99.90
43087;DHT22;28708;52.224;6.924;2023-02-17T08:21:18;10.30;99.90
43087;DHT22;28708;52.224;6.924;2023-02-17T08:23:43;10.30;99.90
43087;DHT22;28708;52.224;6.924;2023-02-17T08:26:09;10.30;99.90
43087;DHT22;28708;52.224;6.924;2023-02-17T08:28:35;10.30;99.90
43087;DHT22;28708;52.224;6.924;2023-02-17T08:31:00;10.30;99.90
43087;DHT22;28708;52.224;6.924;2023-02-17T08:33:27;10.40;99.90
43087;DHT22;28708;52.224;6.924;2023-02-17T08:35:53;10.40;99.90
43087;DHT22;28708;52.224;6.924;2023-02-17T08:38:19;10.40;99.90
43087;DHT22;28708;52.224;6.924;2023-02-17T08:40:44;10.40;99.90
43087;DHT22;28708;52.224;6.924;2023-02-17T08:43:10;10.50;99.90
43087;DHT22;28708;52.224;6.924;2023-02-17T08:45:36;10.50;99.90
43087;DHT22;28708;52.224;6.924;2023-02-17T08:48:05;10.50;99.90
43087;DHT22;28708;52.224;6.924;2023-02-17T08:50:32;10.50;99.90
43087;DHT22;28708;52.224;6.924;2023-02-17T08:52:58;10.60;99.90
43087;DHT22;28708;52.224;6.924;2023-02-17T08:55:24;10.60;99.90
43087;DHT22;28708;52.224;6.924;2023-02-17T08:57:49;10.60;99.90
43087;DHT22;28708;52.224;6.924;2023-02-17T09:00:16;10.60;99.90
43087;DHT22;28708;52.224;6.924;2023-02-17T09:02:43;10.60;99.90
43087;DHT22;28708;52.224;6.924;2023-02-17T09:05:12;10.70;99.90
43087;DHT22;28708;52.224;6.924;2023-02-17T09:07:38;10.70;99.90
43087;DHT22;28708;52.224;6.924;2023-02-17T09:10:06;10.80;99.90
43087;DHT22;28708;52.224;6.924;2023-02-17T09:12:32;10.80;99.90
43087;DHT22;28708;52.224;6.924;2023-02-17T09:14:59;10.80;99.90
43087;DHT22;28708;52.224;6.924;2023-02-17T09:17:24;10.80;99.90
43087;DHT22;28708;52.224;6.924;2023-02-17T09:19:50;10.90;99.90
43087;DHT22;28708;52.224;6.924;2023-02-17T09:22:16;10.90;99.90
43087;DHT22;28708;52.224;6.924;2023-02-17T09:24:42;10.90;99.90
43087;DHT22;28708;52.224;6.924;2023-02-17T09:27:09;10.90;99.90
43087;DHT22;28708;52.224;6.924;2023-02-17T09:29:36;11.00;99.90
43087;DHT22;28708;52.224;6.924;2023-02-17T09:32:08;11.00;99.90
43087;DHT22;28708;52.224;6.924;2023-02-17T09:34:38;11.00;99.90
43087;DHT22;28708;52.224;6.924;2023-02-17T09:37:10;11.00;99.90
43087;DHT22;28708;52.224;6.924;2023-02-17T09:39:36;11.00;99.90
43087;DHT22;28708;52.224;6.924;2023-02-17T09:42:02;11.00;99.90
43087;DHT22;28708;52.224;6.924;2023-02-17T09:44:44;11.00;99.90
43087;DHT22;28708;52.224;6.924;2023-02-17T09:47:22;11.10;99.90
43087;DHT22;28708;52.224;6.924;2023-02-17T09:49:56;11.10;99.90
43087;DHT22;28708;52.224;6.924;2023-02-17T09:52:54;11.10;99.90
43087;DHT22;28708;52.224;6.924;2023-02-17T09:55:29;11.20;99.90
43087;DHT22;28708;52.224;6.924;2023-02-17T09:58:30;11.20;99.90
43087;DHT22;28708;52.224;6.924;2023-02-17T10:01:05;11.30;99.90
43087;DHT22;28708;52.224;6.924;2023-02-17T10:03:39;11.30;99.90
43087;DHT22;28708;52.224;6.924;2023-02-17T10:08:49;11.30;99.90
43087;DHT22;28708;52.224;6.924;2023-02-17T10:14:00;11.40;99.90
43087;DHT22;28708;52.224;6.924;2023-02-17T10:16:32;11.40;99.90
43087;DHT22;28708;52.224;6.924;2023-02-17T10:19:09;11.50;99.90
43087;DHT22;28708;52.224;6.924;2023-02-17T10:21:41;11.50;99.90
43087;DHT22;28708;52.224;6.924;2023-02-17T10:24:09;11.50;99.90
43087;DHT22;28708;52.224;6.924;2023-02-17T10:29:58;11.50;99.90
43087;DHT22;28708;52.224;6.924;2023-02-17T10:32:24;11.50;99.90
43087;DHT22;28708;52.224;6.924;2023-02-17T10:35:13;11.60;99.90
43087;DHT22;28708;52.224;6.924;2023-02-17T10:37:46;11.60;99.90
43087;DHT22;28708;52.224;6.924;2023-02-17T10:40:22;11.70;99.90
43087;DHT22;28708;52.224;6.924;2023-02-17T10:42:50;11.70;99.90
43087;DHT22;28708;52.224;6.924;2023-02-17T10:45:31;11.70;99.90
43087;DHT22;28708;52.224;6.924;2023-02-17T10:48:23;11.80;99.90
43087;DHT22;28708;52.224;6.924;2023-02-17T10:50:49;11.80;99.90
43087;DHT22;28708;52.224;6.924;2023-02-17T10:53:18;11.80;99.90
43087;DHT22;28708;52.224;6.924;2023-02-17T11:01:16;11.70;99.90
43087;DHT22;28708;52.224;6.924;2023-02-17T11:03:42;11.70;99.90
43087;DHT22;28708;52.224;6.924;2023-02-17T11:06:19;11.70;99.90
43087;DHT22;28708;52.224;6.924;2023-02-17T11:08:53;11.80;99.90
43087;DHT22;28708;52.224;6.924;2023-02-17T11:11:23;11.80;99.90
43087;DHT22;28708;52.224;6.924;2023-02-17T11:16:26;11.80;99.90
43087;DHT22;28708;52.224;6.924;2023-02-17T11:18:52;11.90;99.90
43087;DHT22;28708;52.224;6.924;2023-02-17T11:21:20;11.80;99.90
43087;DHT22;28708;52.224;6.924;2023-02-17T11:23:54;11.80;99.90
43087;DHT22;28708;52.224;6.924;2023-02-17T11:26:26;11.80;99.90
43087;DHT22;28708;52.224;6.924;2023-02-17T11:28:52;11.80;99.90
43087;DHT22;28708;52.224;6.924;2023-02-17T11:31:26;11.80;99.90
43087;DHT22;28708;52.224;6.924;2023-02-17T11:33:53;11.80;99.90
43087;DHT22;28708;52.224;6.924;2023-02-17T11:36:26;11.70;99.90
43087;DHT22;28708;52.224;6.924;2023-02-17T11:38:52;11.70;99.90
43087;DHT22;28708;52.224;6.924;2023-02-17T11:41:18;11.60;99.90
43087;DHT22;28708;52.224;6.924;2023-02-17T11:43:54;11.60;99.90
43087;DHT22;28708;52.224;6.924;2023-02-17T11:46:34;11.60;99.90
43087;DHT22;28708;52.224;6.924;2023-02-17T12:00:14;11.60;99.90
43087;DHT22;28708;52.224;6.924;2023-02-17T12:16:38;11.50;99.90
43087;DHT22;28708;52.224;6.924;2023-02-17T12:19:37;11.50;99.90
43087;DHT22;28708;52.224;6.924;2023-02-17T12:22:31;11.50;99.90
43087;DHT22;28708;52.224;6.924;2023-02-17T12:28:31;11.50;99.90
43087;DHT22;28708;52.224;6.924;2023-02-17T12:30:57;11.50;99.90
43087;DHT22;28708;52.224;6.924;2023-02-17T12:36:24;11.40;99.90
43087;DHT22;28708;52.224;6.924;2023-02-17T12:39:16;11.40;99.90
43087;DHT22;28708;52.224;6.924;2023-02-17T12:42:08;11.40;99.90
43087;DHT22;28708;52.224;6.924;2023-02-17T12:44:44;11.40;99.90
43087;DHT22;28708;52.224;6.924;2023-02-17T12:47:30;11.40;99.90
43087;DHT22;28708;52.224;6.924;2023-02-17T12:50:26;11.40;99.90
43087;DHT22;28708;52.224;6.924;2023-02-17T12:52:54;11.40;99.90
43087;DHT22;28708;52.224;6.924;2023-02-17T12:55:29;11.40;99.90
43087;DHT22;28708;52.224;6.924;2023-02-17T12:58:07;11.40;99.90
43087;DHT22;28708;52.224;6.924;2023-02-17T13:00:48;11.40;99.90
43087;DHT22;28708;52.224;6.924;2023-02-17T13:03:15;11.30;99.90
43087;DHT22;28708;52.224;6.924;2023-02-17T13:06:01;11.20;99.90
43087;DHT22;28708;52.224;6.924;2023-02-17T13:08:59;11.20;99.90
43087;DHT22;28708;52.224;6.924;2023-02-17T13:11:30;11.10;99.90
43087;DHT22;28708;52.224;6.924;2023-02-17T13:13:56;11.20;99.90
43087;DHT22;28708;52.224;6.924;2023-02-17T13:16:23;11.10;99.90
43087;DHT22;28708;52.224;6.924;2023-02-17T13:18:50;11.00;99.90
43087;DHT22;28708;52.224;6.924;2023-02-17T13:23:58;11.10;99.90
43087;DHT22;28708;52.224;6.924;2023-02-17T13:26:36;11.10;99.90
43087;DHT22;28708;52.224;6.924;2023-02-17T13:31:59;11.00;99.90
43087;DHT22;28708;52.224;6.924;2023-02-17T13:34:31;11.10;99.90
43087;DHT22;28708;52.224;6.924;2023-02-17T13:36:58;11.10;99.90
43087;DHT22;28708;52.224;6.924;2023-02-17T13:41:58;11.10;99.90
43087;DHT22;28708;52.224;6.924;2023-02-17T13:44:39;11.10;99.90
43087;DHT22;28708;52.224;6.924;2023-02-17T13:47:37;11.10;99.90
43087;DHT22;28708;52.224;6.924;2023-02-17T13:50:02;11.10;99.90
43087;DHT22;28708;52.224;6.924;2023-02-17T13:52:30;11.20;99.90
43087;DHT22;28708;52.224;6.924;2023-02-17T13:54:58;11.20;99.90
43087;DHT22;28708;52.224;6.924;2023-02-17T13:57:29;11.20;99.90
43087;DHT22;28708;52.224;6.924;2023-02-17T14:00:28;11.20;99.90
43087;DHT22;28708;52.224;6.924;2023-02-17T14:02:58;11.20;99.90
43087;DHT22;28708;52.224;6.924;2023-02-17T14:05:36;11.20;99.90
43087;DHT22;28708;52.224;6.924;2023-02-17T14:08:27;11.20;99.90
43087;DHT22;28708;52.224;6.924;2023-02-17T14:10:54;11.20;99.90
43087;DHT22;28708;52.224;6.924;2023-02-17T14:13:22;11.20;99.90
43087;DHT22;28708;52.224;6.924;2023-02-17T14:15:56;11.20;99.90
43087;DHT22;28708;52.224;6.924;2023-02-17T14:21:05;11.20;99.90
43087;DHT22;28708;52.224;6.924;2023-02-17T14:23:46;11.20;99.90
43087;DHT22;28708;52.224;6.924;2023-02-17T14:29:04;11.20;99.90
43087;DHT22;28708;52.224;6.924;2023-02-17T14:31:46;11.10;99.90
43087;DHT22;28708;52.224;6.924;2023-02-17T14:34:27;11.10;99.90
43087;DHT22;28708;52.224;6.924;2023-02-17T14:36:53;11.10;99.90
43087;DHT22;28708;52.224;6.924;2023-02-17T14:39:20;11.10;99.90
43087;DHT22;28708;52.224;6.924;2023-02-17T14:41:46;11.10;99.90
43087;DHT22;28708;52.224;6.924;2023-02-17T14:44:11;11.10;99.90
43087;DHT22;28708;52.224;6.924;2023-02-17T14:46:37;11.20;99.90
43087;DHT22;28708;52.224;6.924;2023-02-17T14:49:04;11.20;99.90
43087;DHT22;28708;52.224;6.924;2023-02-17T14:51:34;11.20;99.90
43087;DHT22;28708;52.224;6.924;2023-02-17T14:54:12;11.20;99.90
43087;DHT22;28708;52.224;6.924;2023-02-17T14:57:01;11.20;99.90
43087;DHT22;28708;52.224;6.924;2023-02-17T14:59:29;11.20;99.90
43087;DHT22;28708;52.224;6.924;2023-02-17T15:01:54;11.20;99.90
43087;DHT22;28708;52.224;6.924;2023-02-17T15:04:20;11.10;99.90
43087;DHT22;28708;52.224;6.924;2023-02-17T15:06:48;11.20;99.90
43087;DHT22;28708;52.224;6.924;2023-02-17T15:09:18;11.20;99.90
43087;DHT22;28708;52.224;6.924;2023-02-17T15:11:46;11.20;99.90
43087;DHT22;28708;52.224;6.924;2023-02-17T15:14:18;11.20;99.90
43087;DHT22;28708;52.224;6.924;2023-02-17T15:16:44;11.20;99.90
43087;DHT22;28708;52.224;6.924;2023-02-17T15:19:11;11.20;99.90
43087;DHT22;28708;52.224;6.924;2023-02-17T15:21:39;11.20;99.90
43087;DHT22;28708;52.224;6.924;2023-02-17T15:24:16;11.20;99.90
43087;DHT22;28708;52.224;6.924;2023-02-17T15:26:41;11.20;99.90
43087;DHT22;28708;52.224;6.924;2023-02-17T15:29:17;11.20;99.90
43087;DHT22;28708;52.224;6.924;2023-02-17T15:31:43;11.20;99.90
43087;DHT22;28708;52.224;6.924;2023-02-17T15:34:13;11.20;99.90
43087;DHT22;28708;52.224;6.924;2023-02-17T15:36:39;11.20;99.90
43087;DHT22;28708;52.224;6.924;2023-02-17T15:39:05;11.20;99.90
43087;DHT22;28708;52.224;6.924;2023-02-17T15:41:30;11.30;99.90
43087;DHT22;28708;52.224;6.924;2023-02-17T15:43:56;11.30;99.90
43087;DHT22;28708;52.224;6.924;2023-02-17T15:46:30;11.20;99.90
43087;DHT22;28708;52.224;6.924;2023-02-17T15:48:57;11.30;99.90
43087;DHT22;28708;52.224;6.924;2023-02-17T15:51:22;11.30;99.90
43087;DHT22;28708;52.224;6.924;2023-02-17T15:53:49;11.30;99.90
43087;DHT22;28708;52.224;6.924;2023-02-17T15:56:25;11.30;99.90
43087;DHT22;28708;52.224;6.924;2023-02-17T15:58:52;11.30;99.90
43087;DHT22;28708;52.224;6.924;2023-02-17T16:01:33;11.30;99.90
43087;DHT22;28708;52.224;6.924;2023-02-17T16:04:00;11.30;99.90
43087;DHT22;28708;52.224;6.924;2023-02-17T16:06:26;11.30;99.90
43087;DHT22;28708;52.224;6.924;2023-02-17T16:08:53;11.30;99.90
43087;DHT22;28708;52.224;6.924;2023-02-17T16:11:20;11.30;99.90
43087;DHT22;28708;52.224;6.924;2023-02-17T16:13:47;11.30;99.90
43087;DHT22;28708;52.224;6.924;2023-02-17T16:16:24;11.30;99.90
43087;DHT22;28708;52.224;6.924;2023-02-17T16:18:53;11.30;99.90
43087;DHT22;28708;52.224;6.924;2023-02-17T16:21:19;11.30;99.90
43087;DHT22;28708;52.224;6.924;2023-02-17T16:23:45;11.40;99.90
43087;DHT22;28708;52.224;6.924;2023-02-17T16:26:32;11.40;99.90
43087;DHT22;28708;52.224;6.924;2023-02-17T16:29:00;11.40;99.90
43087;DHT22;28708;52.224;6.924;2023-02-17T16:31:26;11.40;99.90
43087;DHT22;28708;52.224;6.924;2023-02-17T16:33:51;11.40;99.90
43087;DHT22;28708;52.224;6.924;2023-02-17T16:36:24;11.40;99.90
43087;DHT22;28708;52.224;6.924;2023-02-17T16:38:50;11.40;99.90
43087;DHT22;28708;52.224;6.924;2023-02-17T16:41:18;11.50;99.90
43087;DHT22;28708;52.224;6.924;2023-02-17T16:43:44;11.50;99.90
43087;DHT22;28708;52.224;6.924;2023-02-17T16:46:39;11.50;99.90
43087;DHT22;28708;52.224;6.924;2023-02-17T16:49:17;11.40;99.90
43087;DHT22;28708;52.224;6.924;2023-02-17T16:51:43;11.50;99.90
43087;DHT22;28708;52.224;6.924;2023-02-17T16:54:10;11.50;99.90
43087;DHT22;28708;52.224;6.924;2023-02-17T16:56:38;11.50;99.90
43087;DHT22;28708;52.224;6.924;2023-02-17T16:59:06;11.50;99.90
43087;DHT22;28708;52.224;6.924;2023-02-17T17:01:31;11.50;99.90
43087;DHT22;28708;52.224;6.924;2023-02-17T17:03:57;11.50;99.90
43087;DHT22;28708;52.224;6.924;2023-02-17T17:06:24;11.50;99.90
43087;DHT22;28708;52.224;6.924;2023-02-17T17:08:51;11.50;99.90
43087;DHT22;28708;52.224;6.924;2023-02-17T17:11:19;11.40;99.90